South Pass, WY

11:51 AM MDT on April 25, 2017 (GMT -0600)
South Pass

Weather History for KFWZ - August, 2014

Change the Weather History Date:

Tuesday, August 19, 2014

  Actual Average (KLND) Record (KLND)
Temperature  
Mean Temperature 58 °F -  
Max Temperature 66 °F 84 °F 96 °F (2013)
Min Temperature 51 °F 53 °F 38 °F (1912)
Degree Days  
Heating Degree Days 6    
Growing Degree Days 8 (Base 50)    
Moisture  
Dew Point 35 °F    
Average Humidity 43    
Maximum Humidity 82    
Minimum Humidity 26    
Precipitation  
Precipitation 0.00 in - - ()
Sea Level Pressure  
Sea Level Pressure 30.11 in    
Wind  
Wind Speed 8 mph (WSW)    
Max Wind Speed 20 mph    
Max Gust Speed 26 mph    
Visibility 10 miles    
Events Thunderstorm    
Averages and records for this station are not official NWS values.
T = Trace of Precipitation, MM = Missing Value Source: NWS Daily Summary

Daily Weather History Graph

Daily Weather History Graph

Search for Another Location

Airport or City:

Trip Planner

Search our weather history database for the weather conditions in past years. The results will help you decide how hot, cold, wet, or windy it might be!

Date:

Astronomy

Aug. 19, 2014 Rise Set
Actual Time 6:26 AM MDT 8:10 PM MDT
Civil Twilight 5:56 AM MDT 8:40 PM MDT
Nautical Twilight 5:19 AM MDT 9:16 PM MDT
Astronomical Twilight 4:40 AM MDT 9:55 PM MDT
Moon 1:18 AM MDT (8/19) 4:11 PM MDT (8/19)
Length of Visible Light 14h 43m
Length of Day
13h 43m
Waning Crescent, 28% of the Moon is Illuminated
Aug 19
Waning Crescent
Aug 25
New
Sep 2
First Quarter
Sep 8
Full
Sep 15
Last Quarter

Hourly Weather History & Observations

Time (MDT) Temp. Dew Point Humidity Pressure Visibility Wind Dir Wind Speed Gust Speed Precip Events Conditions
12:15 AM 59.0 °F 32.0 °F 36% 30.18 in 10.0 mi NW 10.4 mph - N/A   Overcast
12:35 AM 59.0 °F 33.8 °F 39% 30.17 in 10.0 mi NW 11.5 mph - N/A   Overcast
12:55 AM 59.0 °F 32.0 °F 36% 30.16 in 10.0 mi NW 8.1 mph - N/A   Overcast
1:15 AM 59.0 °F 33.8 °F 39% 30.16 in 10.0 mi NW 5.8 mph - N/A   Overcast
1:35 AM 60.8 °F 32.0 °F 34% 30.15 in 10.0 mi NNW 5.8 mph - N/A   Overcast
1:55 AM 59.0 °F 32.0 °F 36% 30.14 in 10.0 mi NW 6.9 mph - N/A   Overcast
2:15 AM 59.0 °F 32.0 °F 36% 30.14 in 10.0 mi NW 5.8 mph - N/A   Overcast
2:35 AM 60.8 °F 30.2 °F 31% 30.14 in 10.0 mi NW 5.8 mph - N/A   Overcast
2:55 AM 60.8 °F 30.2 °F 31% 30.14 in 10.0 mi NW 4.6 mph - N/A   Overcast
3:15 AM 62.6 °F 30.2 °F 30% 30.14 in 10.0 mi Calm Calm - N/A   Overcast
3:35 AM 55.4 °F 32.0 °F 41% 30.14 in 10.0 mi SSW 4.6 mph - N/A   Overcast
3:55 AM 55.4 °F 32.0 °F 41% 30.14 in 10.0 mi SSW 5.8 mph - N/A   Overcast
4:15 AM 57.2 °F 32.0 °F 38% 30.14 in 10.0 mi West 6.9 mph - N/A   Overcast
4:35 AM 59.0 °F 32.0 °F 36% 30.14 in 10.0 mi West 5.8 mph - N/A   Overcast
4:55 AM 59.0 °F 30.2 °F 34% 30.13 in 10.0 mi West 5.8 mph - N/A   Overcast
5:15 AM 60.8 °F 30.2 °F 31% 30.14 in 10.0 mi West 4.6 mph - N/A   Overcast
5:35 AM 60.8 °F 28.4 °F 29% 30.13 in 10.0 mi West 4.6 mph - N/A   Overcast
5:55 AM 60.8 °F 28.4 °F 29% 30.13 in 10.0 mi West 4.6 mph - N/A   Overcast
6:15 AM 62.6 °F 28.4 °F 27% 30.13 in 10.0 mi West 4.6 mph - N/A   Overcast
6:35 AM 62.6 °F 28.4 °F 27% 30.12 in 10.0 mi West 4.6 mph - N/A   Overcast
6:55 AM 60.8 °F 28.4 °F 29% 30.12 in 10.0 mi West 3.5 mph - N/A   Overcast
7:15 AM 60.8 °F 28.4 °F 29% 30.12 in 10.0 mi West 4.6 mph - N/A   Overcast
7:35 AM 62.6 °F 28.4 °F 27% 30.12 in 10.0 mi West 4.6 mph - N/A   Overcast
7:55 AM 62.6 °F 28.4 °F 27% 30.12 in 10.0 mi West 4.6 mph - N/A   Overcast
8:15 AM 62.6 °F 28.4 °F 27% 30.12 in 10.0 mi West 4.6 mph - N/A   Overcast
8:35 AM 62.6 °F 28.4 °F 27% 30.11 in 10.0 mi WSW 4.6 mph - N/A   Overcast
8:55 AM 64.4 °F 28.4 °F 26% 30.12 in 10.0 mi WSW 3.5 mph - N/A   Overcast
9:15 AM 64.4 °F 28.4 °F 26% 30.12 in 10.0 mi Calm Calm - N/A   Overcast
9:35 AM 66.2 °F 30.2 °F 26% 30.12 in 10.0 mi SE 6.9 mph - N/A   Overcast
9:55 AM 60.8 °F 32.0 °F 34% 30.13 in 10.0 mi SSE 5.8 mph - N/A   Overcast
10:15 AM 62.6 °F 33.8 °F 34% 30.13 in 10.0 mi SSE 3.5 mph - N/A   Overcast
10:35 AM 62.6 °F 33.8 °F 34% 30.13 in 10.0 mi ESE 3.5 mph - N/A   Overcast
10:55 AM 64.4 °F 33.8 °F 32% 30.14 in 10.0 mi South 16.1 mph 23.0 mph N/A   Overcast
11:15 AM 62.6 °F 32.0 °F 32% 30.14 in 10.0 mi SSW 4.6 mph - N/A   Overcast
11:35 AM 62.6 °F 32.0 °F 32% 30.15 in 10.0 mi SW 12.7 mph 17.3 mph N/A   Overcast
11:55 AM 60.8 °F 32.0 °F 34% 30.15 in 10.0 mi SW 16.1 mph 20.7 mph N/A   Overcast
12:15 PM 59.0 °F 32.0 °F 36% 30.15 in 10.0 mi SW 16.1 mph 19.6 mph N/A   Overcast
12:35 PM 59.0 °F 32.0 °F 36% 30.14 in 10.0 mi WSW 16.1 mph - N/A   Overcast
12:55 PM 62.6 °F 32.0 °F 32% 30.14 in 10.0 mi WSW 18.4 mph 23.0 mph N/A   Overcast
1:15 PM 62.6 °F 33.8 °F 34% 30.13 in 10.0 mi WSW 17.3 mph 26.5 mph N/A   Overcast
1:35 PM 62.6 °F 35.6 °F 37% 30.13 in 10.0 mi WSW 19.6 mph 24.2 mph N/A   Overcast
1:55 PM 62.6 °F 37.4 °F 39% 30.13 in 10.0 mi WSW 15.0 mph 24.2 mph N/A   Overcast
2:15 PM 62.6 °F 41.0 °F 45% 30.12 in 10.0 mi SW 16.1 mph 21.9 mph N/A   Overcast
2:35 PM 64.4 °F 41.0 °F 42% 30.12 in 10.0 mi SSW 13.8 mph 23.0 mph N/A   Overcast
2:55 PM 64.4 °F 41.0 °F 42% 30.12 in 10.0 mi SW 17.3 mph 23.0 mph N/A   Overcast
3:15 PM 62.6 °F 39.2 °F 42% 30.12 in 10.0 mi WSW 15.0 mph 21.9 mph N/A   Overcast
3:35 PM 62.6 °F 39.2 °F 42% 30.10 in 10.0 mi SW 13.8 mph 20.7 mph N/A Thunderstorm Overcast
3:55 PM 60.8 °F 39.2 °F 45% 30.10 in 10.0 mi SW 12.7 mph 20.7 mph N/A   Overcast
4:35 PM 59.0 °F 41.0 °F 51% 30.09 in 10.0 mi WSW 11.5 mph - N/A   Overcast
4:55 PM 59.0 °F 41.0 °F 51% 30.08 in 10.0 mi SSW 8.1 mph - N/A   Overcast
5:15 PM 60.8 °F 41.0 °F 48% 30.08 in 10.0 mi SW 11.5 mph - N/A   Overcast
5:35 PM 59.0 °F 39.2 °F 48% 30.07 in 10.0 mi SW 11.5 mph 16.1 mph N/A   Overcast
5:55 PM 59.0 °F 39.2 °F 48% 30.07 in 10.0 mi SW 10.4 mph - N/A Thunderstorm Overcast
6:15 PM 59.0 °F 39.2 °F 48% 30.06 in 10.0 mi SSW 5.8 mph - N/A   Overcast
6:35 PM 59.0 °F 39.2 °F 48% 30.05 in 10.0 mi SSW 5.8 mph - N/A   Overcast
6:55 PM 59.0 °F 41.0 °F 51% 30.05 in 10.0 mi SW 5.8 mph - N/A   Overcast
7:15 PM 59.0 °F 39.2 °F 48% 30.04 in 10.0 mi SSW 4.6 mph - N/A   Overcast
7:35 PM 59.0 °F 39.2 °F 48% 30.05 in 10.0 mi South 6.9 mph - N/A   Overcast
7:55 PM 59.0 °F 41.0 °F 51% 30.05 in 10.0 mi SSW 8.1 mph - N/A   Overcast
8:55 PM 55.4 °F 44.6 °F 67% 30.05 in 10.0 mi WSW 8.1 mph - N/A   Overcast
9:15 PM 55.4 °F 44.6 °F 67% 30.04 in 10.0 mi WSW 9.2 mph - N/A   Overcast
9:35 PM 55.4 °F 44.6 °F 67% 30.05 in 10.0 mi WSW 11.5 mph - N/A   Overcast
9:55 PM 53.6 °F 46.4 °F 77% 30.03 in 10.0 mi WSW 9.2 mph 17.3 mph N/A   Overcast
10:15 PM 51.8 °F 46.4 °F 82% 30.03 in 10.0 mi WSW 9.2 mph - N/A   Overcast
10:35 PM 51.8 °F 46.4 °F 82% 30.03 in 10.0 mi WSW 8.1 mph - N/A   Overcast
10:55 PM 51.8 °F 46.4 °F 82% 30.02 in 10.0 mi WSW 6.9 mph - N/A   Overcast
11:15 PM 51.8 °F 46.4 °F 82% 30.03 in 10.0 mi WSW 8.1 mph - N/A   Overcast
11:35 PM 51.8 °F 46.4 °F 82% 30.03 in 10.0 mi WSW 9.2 mph - N/A   Overcast
11:55 PM 51.8 °F 46.4 °F 82% 30.03 in 10.0 mi WSW 8.1 mph - N/A   Overcast